Time,TemperatureF,DewpointF,PressureIn,WindDirection,WindDirectionDegrees,WindSpeedMPH,WindSpeedGustMPH,Humidity,HourlyPrecipIn,Conditions,Clouds,dailyrainin,SoftwareType,DateUTC
2013-06-17 00:01:00,62.0,54.0,29.78,WSW,247,6.0,12.0,75,0.00,,,0.00,Rainwise IP-100,2013-06-17 04:01:00,
2013-06-17 00:06:00,62.0,50.0,29.78,SSW,202,2.0,13.0,65,0.00,,,0.00,Rainwise IP-100,2013-06-17 04:06:00,
2013-06-17 00:11:00,62.0,54.0,29.78,SW,225,5.0,9.0,75,0.00,,,0.00,Rainwise IP-100,2013-06-17 04:11:00,
2013-06-17 00:16:00,62.0,50.0,29.78,WSW,247,9.0,16.0,65,0.00,,,0.00,Rainwise IP-100,2013-06-17 04:16:00,
2013-06-17 00:21:00,63.0,55.0,29.77,SW,225,0.0,13.0,75,0.00,,,0.00,Rainwise IP-100,2013-06-17 04:21:00,
2013-06-17 00:26:00,62.0,50.0,29.77,NNW,337,1.0,16.0,65,0.00,,,0.00,Rainwise IP-100,2013-06-17 04:26:00,
2013-06-17 00:31:00,63.0,55.0,29.78,SW,225,2.0,16.0,75,0.00,,,0.00,Rainwise IP-100,2013-06-17 04:31:00,
2013-06-17 00:36:00,63.0,51.0,29.78,South,180,1.0,14.0,66,0.00,,,0.00,Rainwise IP-100,2013-06-17 04:36:00,
2013-06-17 00:41:00,63.0,55.0,29.78,NW,315,2.0,13.0,75,0.00,,,0.00,Rainwise IP-100,2013-06-17 04:41:00,
2013-06-17 00:46:00,63.0,51.0,29.78,SW,225,8.0,12.0,66,0.00,,,0.00,Rainwise IP-100,2013-06-17 04:46:00,
2013-06-17 00:51:00,63.0,55.0,29.78,SW,225,4.0,11.0,75,0.00,,,0.00,Rainwise IP-100,2013-06-17 04:51:00,
2013-06-17 00:56:00,63.0,52.0,29.78,West,270,1.0,12.0,67,0.00,,,0.00,Rainwise IP-100,2013-06-17 04:56:00,
2013-06-17 01:01:00,63.0,52.0,29.78,SW,225,7.0,14.0,68,0.00,,,0.00,Rainwise IP-100,2013-06-17 05:01:00,
2013-06-17 01:06:00,63.0,52.0,29.78,West,270,12.0,12.0,67,0.00,,,0.00,Rainwise IP-100,2013-06-17 05:06:00,
2013-06-17 01:11:00,63.0,52.0,29.78,SW,225,10.0,13.0,68,0.00,,,0.00,Rainwise IP-100,2013-06-17 05:11:00,
2013-06-17 01:17:00,62.0,51.0,29.78,West,270,12.0,13.0,67,0.00,,,0.00,Rainwise IP-100,2013-06-17 05:17:00,
2013-06-17 01:22:00,62.0,51.0,29.78,SW,225,6.0,12.0,68,0.00,,,0.00,Rainwise IP-100,2013-06-17 05:22:00,
2013-06-17 01:27:00,62.0,51.0,29.78,SW,225,2.0,12.0,67,0.00,,,0.00,Rainwise IP-100,2013-06-17 05:27:00,
2013-06-17 01:32:00,62.0,51.0,29.79,SW,225,0.0,10.0,68,0.00,,,0.00,Rainwise IP-100,2013-06-17 05:32:00,
2013-06-17 01:37:00,62.0,50.0,29.79,NW,315,4.0,12.0,65,0.00,,,0.00,Rainwise IP-100,2013-06-17 05:37:00,
2013-06-17 01:42:00,63.0,52.0,29.78,West,270,6.0,11.0,67,0.00,,,0.00,Rainwise IP-100,2013-06-17 05:42:00,
2013-06-17 01:47:00,64.0,52.0,29.78,NW,315,12.0,12.0,65,0.00,,,0.00,Rainwise IP-100,2013-06-17 05:47:00,
2013-06-17 01:52:00,64.0,53.0,29.77,WSW,247,0.0,13.0,67,0.00,,,0.00,Rainwise IP-100,2013-06-17 05:52:00,
2013-06-17 01:57:00,64.0,53.0,29.77,WNW,292,6.0,12.0,66,0.00,,,0.00,Rainwise IP-100,2013-06-17 05:57:00,
2013-06-17 02:02:00,64.0,53.5,29.78,West,270,1.0,13.0,68,0.00,,,0.00,Rainwise IP-100,2013-06-17 06:02:00,
2013-06-17 02:07:00,64.0,53.0,29.78,West,270,8.0,10.0,67,0.00,,,0.00,Rainwise IP-100,2013-06-17 06:07:00,
2013-06-17 02:12:00,63.0,52.0,29.78,NW,315,9.0,9.0,67,0.00,,,0.00,Rainwise IP-100,2013-06-17 06:12:00,
2013-06-17 02:17:00,63.0,51.0,29.78,SW,225,0.0,13.0,66,0.00,,,0.00,Rainwise IP-100,2013-06-17 06:17:00,
2013-06-17 02:22:00,63.0,52.0,29.78,NW,315,2.0,8.0,67,0.00,,,0.00,Rainwise IP-100,2013-06-17 06:22:00,
2013-06-17 02:27:00,63.0,51.0,29.78,NW,315,4.0,8.0,65,0.00,,,0.00,Rainwise IP-100,2013-06-17 06:27:00,
2013-06-17 02:33:00,63.0,51.0,29.79,NW,315,3.0,8.0,66,0.00,,,0.00,Rainwise IP-100,2013-06-17 06:33:00,
2013-06-17 02:38:00,63.0,51.0,29.79,WNW,292,5.0,9.0,65,0.00,,,0.00,Rainwise IP-100,2013-06-17 06:38:00,
2013-06-17 02:43:00,63.0,51.0,29.79,West,270,1.0,9.0,65,0.00,,,0.00,Rainwise IP-100,2013-06-17 06:43:00,
2013-06-17 02:48:00,64.0,52.0,29.79,WNW,292,1.0,10.0,65,0.00,,,0.00,Rainwise IP-100,2013-06-17 06:48:00,
2013-06-17 02:53:00,64.0,52.0,29.78,NW,315,2.0,8.0,65,0.00,,,0.00,Rainwise IP-100,2013-06-17 06:53:00,
2013-06-17 02:58:00,64.0,52.0,29.78,WSW,247,2.0,11.0,65,0.00,,,0.00,Rainwise IP-100,2013-06-17 06:58:00,
2013-06-17 03:03:00,64.0,52.0,29.79,NW,315,5.0,13.0,65,0.00,,,0.00,Rainwise IP-100,2013-06-17 07:03:00,
2013-06-17 03:09:00,64.0,53.0,29.79,NW,315,5.0,12.0,66,0.00,,,0.00,Rainwise IP-100,2013-06-17 07:09:00,
2013-06-17 03:14:00,64.0,53.0,29.79,West,270,2.0,10.0,67,0.00,,,0.00,Rainwise IP-100,2013-06-17 07:14:00,
2013-06-17 03:19:00,65.0,53.5,29.79,WNW,292,2.0,13.0,66,0.00,,,0.00,Rainwise IP-100,2013-06-17 07:19:00,
2013-06-17 03:24:00,65.0,54.0,29.79,NW,315,1.0,13.0,67,0.00,,,0.00,Rainwise IP-100,2013-06-17 07:24:00,
2013-06-17 03:29:00,65.0,54.0,29.79,NW,315,2.0,11.0,67,0.00,,,0.00,Rainwise IP-100,2013-06-17 07:29:00,
2013-06-17 03:34:00,65.0,54.0,29.78,NW,315,7.0,11.0,68,0.00,,,0.00,Rainwise IP-100,2013-06-17 07:34:00,
2013-06-17 03:39:00,65.0,54.0,29.78,WNW,292,3.0,10.0,68,0.00,,,0.00,Rainwise IP-100,2013-06-17 07:39:00,
2013-06-17 03:44:00,65.0,54.0,29.79,NNW,337,1.0,11.0,68,0.00,,,0.00,Rainwise IP-100,2013-06-17 07:44:00,
2013-06-17 03:49:00,65.0,54.0,29.79,NW,315,4.0,7.0,68,0.00,,,0.00,Rainwise IP-100,2013-06-17 07:49:00,
2013-06-17 03:54:00,65.0,54.5,29.79,West,270,4.0,6.0,69,0.00,,,0.00,Rainwise IP-100,2013-06-17 07:54:00,
2013-06-17 03:59:00,65.0,54.0,29.79,West,270,0.0,7.0,68,0.00,,,0.00,Rainwise IP-100,2013-06-17 07:59:00,
2013-06-17 04:04:00,65.0,54.5,29.79,WNW,292,1.0,5.0,69,0.00,,,0.00,Rainwise IP-100,2013-06-17 08:04:00,
2013-06-17 04:09:00,65.0,54.0,29.79,West,270,0.0,6.0,68,0.00,,,0.00,Rainwise IP-100,2013-06-17 08:09:00,
2013-06-17 04:14:00,64.0,53.5,29.79,WNW,292,5.0,5.0,69,0.00,,,0.00,Rainwise IP-100,2013-06-17 08:14:00,
2013-06-17 04:19:00,64.0,53.0,29.79,WNW,292,2.0,7.0,67,0.00,,,0.00,Rainwise IP-100,2013-06-17 08:19:00,
2013-06-17 04:25:00,64.0,53.5,29.79,WNW,292,0.0,6.0,68,0.00,,,0.00,Rainwise IP-100,2013-06-17 08:25:00,
2013-06-17 04:30:00,64.0,53.0,29.79,West,270,0.0,5.0,67,0.00,,,0.00,Rainwise IP-100,2013-06-17 08:30:00,
2013-06-17 04:35:00,64.0,53.5,29.80,SW,225,0.0,2.0,69,0.00,,,0.00,Rainwise IP-100,2013-06-17 08:35:00,
2013-06-17 04:40:00,63.0,52.0,29.80,SW,225,0.0,3.0,67,0.00,,,0.00,Rainwise IP-100,2013-06-17 08:40:00,
2013-06-17 04:45:00,63.0,52.0,29.80,SW,225,2.0,4.0,67,0.00,,,0.00,Rainwise IP-100,2013-06-17 08:45:00,
2013-06-17 04:50:00,62.0,50.0,29.80,SW,225,2.0,3.0,65,0.00,,,0.00,Rainwise IP-100,2013-06-17 08:50:00,
2013-06-17 04:55:00,62.0,50.0,29.81,SW,225,0.0,5.0,65,0.00,,,0.00,Rainwise IP-100,2013-06-17 08:55:00,
2013-06-17 05:00:00,62.0,50.0,29.81,SW,225,1.0,4.0,64,0.00,,,0.00,Rainwise IP-100,2013-06-17 09:00:00,
2013-06-17 05:05:00,62.0,49.0,29.82,SW,225,1.0,4.0,63,0.00,,,0.00,Rainwise IP-100,2013-06-17 09:05:00,
2013-06-17 05:10:00,62.0,49.0,29.82,SW,225,0.0,4.0,62,0.00,,,0.00,Rainwise IP-100,2013-06-17 09:10:00,
2013-06-17 05:15:00,62.0,49.0,29.83,West,270,0.0,6.0,62,0.00,,,0.00,Rainwise IP-100,2013-06-17 09:15:00,
2013-06-17 05:20:00,62.0,53.0,29.83,West,270,2.0,6.0,72,0.00,,,0.00,Rainwise IP-100,2013-06-17 09:20:00,
2013-06-17 05:25:00,61.0,47.0,29.83,WSW,247,2.0,5.0,60,0.00,,,0.00,Rainwise IP-100,2013-06-17 09:25:00,
2013-06-17 05:30:00,61.0,47.0,29.83,SW,225,0.0,4.0,60,0.00,,,0.00,Rainwise IP-100,2013-06-17 09:30:00,
2013-06-17 05:35:00,61.0,47.0,29.84,SW,225,4.0,9.0,59,0.00,,,0.00,Rainwise IP-100,2013-06-17 09:35:00,
2013-06-17 05:40:00,61.0,51.0,29.84,West,270,0.0,6.0,71,0.00,,,0.00,Rainwise IP-100,2013-06-17 09:40:00,
2013-06-17 05:45:00,61.0,47.0,29.84,SW,225,0.0,6.0,59,0.00,,,0.00,Rainwise IP-100,2013-06-17 09:45:00,
2013-06-17 05:50:00,61.0,51.0,29.84,SSW,202,1.0,3.0,70,0.00,,,0.00,Rainwise IP-100,2013-06-17 09:50:00,
2013-06-17 05:55:00,61.0,46.0,29.84,SW,225,1.0,4.0,57,0.00,,,0.00,Rainwise IP-100,2013-06-17 09:55:00,
2013-06-17 06:01:00,61.0,51.0,29.84,SW,225,0.0,4.0,70,0.00,,,0.00,Rainwise IP-100,2013-06-17 10:01:00,
2013-06-17 06:06:00,61.0,45.0,29.84,WNW,292,0.0,5.0,56,0.00,,,0.00,Rainwise IP-100,2013-06-17 10:06:00,
2013-06-17 06:11:00,61.0,50.5,29.84,West,270,0.0,6.0,69,0.00,,,0.00,Rainwise IP-100,2013-06-17 10:11:00,
2013-06-17 06:16:00,61.0,45.0,29.84,SW,225,0.0,6.0,56,0.00,,,0.00,Rainwise IP-100,2013-06-17 10:16:00,
2013-06-17 06:21:00,62.0,52.0,29.83,SW,225,3.0,4.0,69,0.00,,,0.00,Rainwise IP-100,2013-06-17 10:21:00,
2013-06-17 06:26:00,62.0,46.0,29.83,WNW,292,0.0,5.0,55,0.00,,,0.00,Rainwise IP-100,2013-06-17 10:26:00,
2013-06-17 06:31:00,62.0,52.0,29.84,SW,225,0.0,4.0,69,0.00,,,0.00,Rainwise IP-100,2013-06-17 10:31:00,
2013-06-17 06:36:00,62.0,45.0,29.84,WSW,247,0.0,5.0,54,0.00,,,0.00,Rainwise IP-100,2013-06-17 10:36:00,
2013-06-17 06:41:00,62.0,51.0,29.84,West,270,0.0,5.0,68,0.00,,,0.00,Rainwise IP-100,2013-06-17 10:41:00,
2013-06-17 06:46:00,62.0,45.0,29.84,WNW,292,1.0,6.0,54,0.00,,,0.00,Rainwise IP-100,2013-06-17 10:46:00,
2013-06-17 06:51:00,62.0,51.0,29.85,WNW,292,2.0,6.0,68,0.00,,,0.00,Rainwise IP-100,2013-06-17 10:51:00,
2013-06-17 06:54:00,62.0,45.0,29.85,WSW,247,1.0,5.0,54,0.00,,,0.00,Rainwise IP-100,2013-06-17 10:54:00,
2013-06-17 06:59:00,62.0,45.0,29.85,SSW,202,0.0,4.0,54,0.00,,,0.00,Rainwise IP-100,2013-06-17 10:59:00,
2013-06-17 07:00:00,62.0,45.0,29.85,SSW,202,0.0,4.0,54,0.00,,,0.00,Rainwise IP-100,2013-06-17 11:00:00,
2013-06-17 07:05:00,63.0,46.0,29.85,SW,225,3.0,6.0,54,0.00,,,0.00,Rainwise IP-100,2013-06-17 11:05:00,
2013-06-17 07:10:00,63.0,46.0,29.85,SSW,202,0.0,4.0,54,0.00,,,0.00,Rainwise IP-100,2013-06-17 11:10:00,
2013-06-17 07:15:00,64.0,48.0,29.84,West,270,1.0,8.0,56,0.00,,,0.00,Rainwise IP-100,2013-06-17 11:15:00,
2013-06-17 07:20:00,65.0,49.0,29.84,WSW,247,1.0,8.0,57,0.00,,,0.00,Rainwise IP-100,2013-06-17 11:20:00,
2013-06-17 07:25:00,65.0,50.5,29.84,SSW,202,5.0,9.0,59,0.00,,,0.00,Rainwise IP-100,2013-06-17 11:25:00,
2013-06-17 07:30:00,65.0,51.0,29.84,South,180,1.0,9.0,61,0.00,,,0.00,Rainwise IP-100,2013-06-17 11:30:00,
2013-06-17 07:35:00,66.0,53.0,29.84,WSW,247,4.0,9.0,62,0.00,,,0.00,Rainwise IP-100,2013-06-17 11:35:00,
2013-06-17 07:40:00,66.0,57.0,29.85,WNW,292,3.0,10.0,74,0.00,,,0.00,Rainwise IP-100,2013-06-17 11:40:00,
2013-06-17 07:45:00,66.0,53.5,29.85,SW,225,4.0,7.0,64,0.00,,,0.00,Rainwise IP-100,2013-06-17 11:45:00,
2013-06-17 07:50:00,66.0,57.5,29.84,SW,225,4.0,9.0,75,0.00,,,0.00,Rainwise IP-100,2013-06-17 11:50:00,
2013-06-17 07:56:00,66.0,54.0,29.84,WSW,247,1.0,9.0,66,0.00,,,0.00,Rainwise IP-100,2013-06-17 11:56:00,
2013-06-17 08:01:00,66.0,58.0,29.85,West,270,4.0,9.0,76,0.00,,,0.00,Rainwise IP-100,2013-06-17 12:01:00,
2013-06-17 08:06:00,65.0,54.0,29.85,SW,225,6.0,9.0,67,0.00,,,0.00,Rainwise IP-100,2013-06-17 12:06:00,
2013-06-17 08:11:00,66.0,58.0,29.85,SW,225,4.0,9.0,76,0.00,,,0.00,Rainwise IP-100,2013-06-17 12:11:00,
2013-06-17 08:16:00,65.0,54.0,29.85,SW,225,0.0,8.0,67,0.00,,,0.00,Rainwise IP-100,2013-06-17 12:16:00,
2013-06-17 08:21:00,65.0,57.0,29.85,SW,225,3.0,6.0,76,0.00,,,0.00,Rainwise IP-100,2013-06-17 12:21:00,
2013-06-17 08:26:00,65.0,54.0,29.85,NW,315,3.0,6.0,67,0.00,,,0.00,Rainwise IP-100,2013-06-17 12:26:00,
2013-06-17 08:31:00,66.0,58.0,29.85,SW,225,2.0,6.0,76,0.00,,,0.00,Rainwise IP-100,2013-06-17 12:31:00,
2013-06-17 08:36:00,66.0,55.0,29.85,West,270,1.0,6.0,68,0.00,,,0.00,Rainwise IP-100,2013-06-17 12:36:00,
2013-06-17 08:41:00,66.0,58.0,29.85,WSW,247,2.0,7.0,76,0.00,,,0.00,Rainwise IP-100,2013-06-17 12:41:00,
2013-06-17 08:46:00,66.0,55.0,29.85,WSW,247,3.0,3.0,68,0.00,,,0.00,Rainwise IP-100,2013-06-17 12:46:00,
2013-06-17 08:51:00,67.0,59.5,29.85,WNW,292,2.0,8.0,76,0.00,,,0.00,Rainwise IP-100,2013-06-17 12:51:00,
2013-06-17 08:56:00,67.0,56.5,29.85,West,270,0.0,7.0,69,0.00,,,0.00,Rainwise IP-100,2013-06-17 12:56:00,
2013-06-17 09:01:00,68.0,57.5,29.84,West,270,1.0,4.0,70,0.00,,,0.00,Rainwise IP-100,2013-06-17 13:01:00,
2013-06-17 09:06:00,68.0,58.0,29.84,SW,225,4.0,6.0,71,0.00,,,0.00,Rainwise IP-100,2013-06-17 13:06:00,
2013-06-17 09:12:00,68.0,58.0,29.84,SW,225,2.0,7.0,71,0.00,,,0.00,Rainwise IP-100,2013-06-17 13:12:00,
2013-06-17 09:17:00,68.0,57.5,29.84,WNW,292,0.0,8.0,70,0.00,,,0.00,Rainwise IP-100,2013-06-17 13:17:00,
2013-06-17 09:22:00,68.0,58.0,29.85,WSW,247,2.0,6.0,71,0.00,,,0.00,Rainwise IP-100,2013-06-17 13:22:00,
2013-06-17 09:27:00,68.0,58.0,29.85,SSW,202,4.0,4.0,71,0.00,,,0.00,Rainwise IP-100,2013-06-17 13:27:00,
2013-06-17 09:32:00,68.0,58.0,29.84,WSW,247,0.0,8.0,71,0.00,,,0.00,Rainwise IP-100,2013-06-17 13:32:00,
2013-06-17 09:37:00,68.0,58.0,29.84,SW,225,3.0,8.0,71,0.00,,,0.00,Rainwise IP-100,2013-06-17 13:37:00,
2013-06-17 09:42:00,68.0,59.0,29.85,NNW,337,0.0,6.0,72,0.00,,,0.00,Rainwise IP-100,2013-06-17 13:42:00,
2013-06-17 09:47:00,68.0,58.0,29.85,WSW,247,5.0,9.0,71,0.00,,,0.00,Rainwise IP-100,2013-06-17 13:47:00,
2013-06-17 09:52:00,67.0,57.5,29.85,West,270,2.0,10.0,71,0.00,,,0.00,Rainwise IP-100,2013-06-17 13:52:00,
2013-06-17 09:57:00,67.0,57.0,29.85,West,270,5.0,6.0,70,0.00,,,0.00,Rainwise IP-100,2013-06-17 13:57:00,
2013-06-17 10:02:00,67.0,57.0,29.85,SW,225,2.0,8.0,70,0.00,,,0.00,Rainwise IP-100,2013-06-17 14:02:00,
2013-06-17 10:07:00,67.0,57.0,29.85,SW,225,5.0,9.0,70,0.00,,,0.00,Rainwise IP-100,2013-06-17 14:07:00,
2013-06-17 10:12:00,67.0,57.0,29.86,SW,225,3.0,9.0,70,0.00,,,0.00,Rainwise IP-100,2013-06-17 14:12:00,
2013-06-17 10:17:00,68.0,58.0,29.86,SSW,202,4.0,8.0,71,0.00,,,0.00,Rainwise IP-100,2013-06-17 14:17:00,
2013-06-17 10:22:00,68.0,59.0,29.85,SSW,202,0.0,7.0,72,0.00,,,0.00,Rainwise IP-100,2013-06-17 14:22:00,
2013-06-17 10:28:00,69.0,59.0,29.85,SW,225,6.0,8.0,71,0.00,,,0.00,Rainwise IP-100,2013-06-17 14:28:00,
2013-06-17 10:33:00,69.0,59.0,29.85,SW,225,3.0,7.0,70,0.00,,,0.00,Rainwise IP-100,2013-06-17 14:33:00,
2013-06-17 10:38:00,70.0,60.0,29.85,WNW,292,0.0,9.0,70,0.00,,,0.00,Rainwise IP-100,2013-06-17 14:38:00,
2013-06-17 10:43:00,70.0,60.5,29.85,SW,225,6.0,10.0,71,0.00,,,0.00,Rainwise IP-100,2013-06-17 14:43:00,
2013-06-17 10:48:00,69.0,59.0,29.85,WSW,247,1.0,10.0,71,0.00,,,0.00,Rainwise IP-100,2013-06-17 14:48:00,
2013-06-17 10:53:00,70.0,60.5,29.85,West,270,2.0,8.0,71,0.00,,,0.00,Rainwise IP-100,2013-06-17 14:53:00,
2013-06-17 10:58:00,70.0,60.5,29.85,SSW,202,4.0,11.0,71,0.00,,,0.00,Rainwise IP-100,2013-06-17 14:58:00,
2013-06-17 11:03:00,71.0,61.5,29.85,SSW,202,8.0,9.0,72,0.00,,,0.00,Rainwise IP-100,2013-06-17 15:03:00,
2013-06-17 11:08:00,71.0,61.0,29.85,South,180,1.0,9.0,71,0.00,,,0.00,Rainwise IP-100,2013-06-17 15:08:00,
2013-06-17 11:13:00,71.0,61.5,29.85,WSW,247,0.0,10.0,73,0.00,,,0.00,Rainwise IP-100,2013-06-17 15:13:00,
2013-06-17 11:18:00,71.0,61.5,29.85,South,180,2.0,10.0,73,0.00,,,0.00,Rainwise IP-100,2013-06-17 15:18:00,
2013-06-17 11:23:00,70.0,61.0,29.85,South,180,3.0,12.0,73,0.00,,,0.00,Rainwise IP-100,2013-06-17 15:23:00,
2013-06-17 11:28:00,71.0,61.5,29.85,SW,225,3.0,9.0,73,0.00,,,0.00,Rainwise IP-100,2013-06-17 15:28:00,
2013-06-17 11:33:00,70.0,61.5,29.84,SW,225,7.0,9.0,74,0.00,,,0.00,Rainwise IP-100,2013-06-17 15:33:00,
2013-06-17 11:39:00,70.0,61.0,29.84,SSW,202,9.0,12.0,73,0.00,,,0.00,Rainwise IP-100,2013-06-17 15:39:00,
2013-06-17 11:44:00,70.0,61.0,29.85,SW,225,1.0,10.0,73,0.00,,,0.00,Rainwise IP-100,2013-06-17 15:44:00,
2013-06-17 11:49:00,71.0,61.5,29.85,WSW,247,5.0,9.0,73,0.00,,,0.00,Rainwise IP-100,2013-06-17 15:49:00,
2013-06-17 11:54:00,71.0,62.0,29.84,South,180,3.0,11.0,74,0.00,,,0.00,Rainwise IP-100,2013-06-17 15:54:00,
2013-06-17 11:59:00,70.0,61.5,29.84,SSE,157,9.0,13.0,74,0.00,,,0.00,Rainwise IP-100,2013-06-17 15:59:00,
2013-06-17 12:04:00,70.0,61.5,29.84,SSW,202,7.0,15.0,74,0.00,,,0.00,Rainwise IP-100,2013-06-17 16:04:00,
2013-06-17 12:09:00,70.0,61.0,29.84,South,180,6.0,13.0,73,0.00,,,0.00,Rainwise IP-100,2013-06-17 16:09:00,
2013-06-17 12:14:00,70.0,61.5,29.84,SW,225,10.0,13.0,74,0.00,,,0.00,Rainwise IP-100,2013-06-17 16:14:00,
2013-06-17 12:19:00,70.0,61.5,29.84,SSE,157,5.0,12.0,74,0.00,,,0.00,Rainwise IP-100,2013-06-17 16:19:00,
2013-06-17 12:24:00,69.0,60.5,29.84,SW,225,11.0,13.0,74,0.00,,,0.00,Rainwise IP-100,2013-06-17 16:24:00,
2013-06-17 12:29:00,68.0,59.0,29.84,SW,225,10.0,13.0,73,0.00,,,0.00,Rainwise IP-100,2013-06-17 16:29:00,
2013-06-17 12:34:00,69.0,60.0,29.85,SW,225,11.0,13.0,73,0.00,,,0.00,Rainwise IP-100,2013-06-17 16:34:00,
2013-06-17 12:39:00,71.0,61.5,29.85,South,180,1.0,12.0,73,0.00,,,0.00,Rainwise IP-100,2013-06-17 16:39:00,
2013-06-17 12:44:00,70.0,62.0,29.84,SSW,202,7.0,10.0,75,0.00,,,0.00,Rainwise IP-100,2013-06-17 16:44:00,
2013-06-17 12:49:00,69.0,60.0,29.84,SW,225,7.0,12.0,73,0.00,,,0.00,Rainwise IP-100,2013-06-17 16:49:00,
2013-06-17 12:55:00,69.0,60.0,29.85,SSW,202,1.0,15.0,73,0.00,,,0.00,Rainwise IP-100,2013-06-17 16:55:00,
2013-06-17 13:00:00,69.0,60.0,29.85,SSW,202,8.0,12.0,73,0.00,,,0.00,Rainwise IP-100,2013-06-17 17:00:00,
2013-06-17 13:05:00,69.0,60.5,29.85,SW,225,9.0,13.0,74,0.00,,,0.00,Rainwise IP-100,2013-06-17 17:05:00,
2013-06-17 13:10:00,69.0,60.0,29.85,South,180,7.0,14.0,73,0.00,,,0.00,Rainwise IP-100,2013-06-17 17:10:00,
2013-06-17 13:15:00,70.0,61.0,29.85,SW,225,5.0,10.0,73,0.00,,,0.00,Rainwise IP-100,2013-06-17 17:15:00,
2013-06-17 13:20:00,69.0,60.0,29.85,SW,225,6.0,15.0,73,0.00,,,0.00,Rainwise IP-100,2013-06-17 17:20:00,
2013-06-17 13:25:00,70.0,61.0,29.84,NW,315,1.0,13.0,73,0.00,,,0.00,Rainwise IP-100,2013-06-17 17:25:00,
2013-06-17 13:30:00,71.0,61.5,29.84,SSW,202,0.0,12.0,73,0.00,,,0.00,Rainwise IP-100,2013-06-17 17:30:00,
2013-06-17 13:35:00,71.0,62.0,29.83,SW,225,10.0,12.0,74,0.00,,,0.00,Rainwise IP-100,2013-06-17 17:35:00,
2013-06-17 13:40:00,71.0,61.5,29.83,SW,225,1.0,16.0,73,0.00,,,0.00,Rainwise IP-100,2013-06-17 17:40:00,
2013-06-17 13:45:00,71.0,62.0,29.83,SW,225,3.0,13.0,74,0.00,,,0.00,Rainwise IP-100,2013-06-17 17:45:00,
2013-06-17 13:50:00,71.0,62.0,29.83,SW,225,9.0,14.0,74,0.00,,,0.00,Rainwise IP-100,2013-06-17 17:50:00,
2013-06-17 13:55:00,72.0,63.5,29.84,SW,225,7.0,10.0,75,0.00,,,0.00,Rainwise IP-100,2013-06-17 17:55:00,
2013-06-17 14:00:00,71.0,64.5,29.84,SW,225,9.0,15.0,80,0.00,,,0.00,Rainwise IP-100,2013-06-17 18:00:00,
2013-06-17 14:05:00,71.0,62.5,29.84,WSW,247,9.0,12.0,75,0.00,,,0.00,Rainwise IP-100,2013-06-17 18:05:00,
2013-06-17 14:11:00,71.0,64.5,29.85,SW,225,6.0,16.0,80,0.00,,,0.00,Rainwise IP-100,2013-06-17 18:11:00,
2013-06-17 14:16:00,71.0,62.5,29.85,SSW,202,9.0,14.0,75,0.00,,,0.00,Rainwise IP-100,2013-06-17 18:16:00,
2013-06-17 14:21:00,69.0,62.0,29.85,SW,225,9.0,16.0,79,0.00,,,0.00,Rainwise IP-100,2013-06-17 18:21:00,
2013-06-17 14:26:00,69.0,60.5,29.85,South,180,6.0,16.0,75,0.00,,,0.00,Rainwise IP-100,2013-06-17 18:26:00,
2013-06-17 14:31:00,70.0,63.5,29.85,South,180,6.0,15.0,80,0.00,,,0.00,Rainwise IP-100,2013-06-17 18:31:00,
2013-06-17 14:36:00,69.0,60.5,29.85,South,180,7.0,15.0,75,0.00,,,0.00,Rainwise IP-100,2013-06-17 18:36:00,
2013-06-17 14:41:00,70.0,63.0,29.85,WSW,247,3.0,17.0,79,0.00,,,0.00,Rainwise IP-100,2013-06-17 18:41:00,
2013-06-17 14:46:00,70.0,62.0,29.85,SSW,202,5.0,13.0,75,0.00,,,0.00,Rainwise IP-100,2013-06-17 18:46:00,
2013-06-17 14:51:00,69.0,61.5,29.84,SW,225,10.0,15.0,78,0.00,,,0.00,Rainwise IP-100,2013-06-17 18:51:00,
2013-06-17 14:56:00,70.0,61.5,29.84,South,180,2.0,16.0,74,0.00,,,0.00,Rainwise IP-100,2013-06-17 18:56:00,
2013-06-17 15:01:00,70.0,63.0,29.84,WSW,247,1.0,11.0,79,0.00,,,0.00,Rainwise IP-100,2013-06-17 19:01:00,
2013-06-17 15:06:00,72.0,63.5,29.84,SW,225,6.0,8.0,75,0.00,,,0.00,Rainwise IP-100,2013-06-17 19:06:00,
2013-06-17 15:11:00,70.0,62.0,29.84,SSE,157,0.0,14.0,75,0.00,,,0.00,Rainwise IP-100,2013-06-17 19:11:00,
2013-06-17 15:16:00,70.0,62.0,29.84,SW,225,8.0,12.0,75,0.00,,,0.00,Rainwise IP-100,2013-06-17 19:16:00,
2013-06-17 15:21:00,70.0,62.0,29.83,SW,225,4.0,12.0,75,0.00,,,0.00,Rainwise IP-100,2013-06-17 19:21:00,
2013-06-17 15:27:00,70.0,62.0,29.83,SSW,202,9.0,15.0,75,0.00,,,0.00,Rainwise IP-100,2013-06-17 19:27:00,
2013-06-17 15:32:00,71.0,62.5,29.83,East,90,0.0,14.0,75,0.00,,,0.00,Rainwise IP-100,2013-06-17 19:32:00,
2013-06-17 15:37:00,71.0,62.5,29.83,SW,225,7.0,12.0,75,0.00,,,0.00,Rainwise IP-100,2013-06-17 19:37:00,
2013-06-17 15:42:00,71.0,62.5,29.83,South,180,5.0,16.0,75,0.00,,,0.00,Rainwise IP-100,2013-06-17 19:42:00,
2013-06-17 15:47:00,71.0,62.5,29.83,WSW,247,3.0,16.0,75,0.00,,,0.00,Rainwise IP-100,2013-06-17 19:47:00,
2013-06-17 15:52:00,70.0,62.0,29.82,SW,225,10.0,16.0,76,0.00,,,0.00,Rainwise IP-100,2013-06-17 19:52:00,
2013-06-17 15:57:00,70.0,62.0,29.82,South,180,7.0,16.0,75,0.00,,,0.00,Rainwise IP-100,2013-06-17 19:57:00,
2013-06-17 16:02:00,69.0,60.5,29.83,SSW,202,3.0,17.0,75,0.00,,,0.00,Rainwise IP-100,2013-06-17 20:02:00,
2013-06-17 16:07:00,69.0,60.5,29.83,SW,225,6.0,16.0,75,0.00,,,0.00,Rainwise IP-100,2013-06-17 20:07:00,
2013-06-17 16:12:00,69.0,60.5,29.83,SW,225,15.0,15.0,75,0.00,,,0.00,Rainwise IP-100,2013-06-17 20:12:00,
2013-06-17 16:17:00,68.0,59.5,29.83,SSW,202,3.0,20.0,74,0.00,,,0.00,Rainwise IP-100,2013-06-17 20:17:00,
2013-06-17 16:22:00,69.0,60.5,29.82,SSE,157,3.0,16.0,74,0.00,,,0.00,Rainwise IP-100,2013-06-17 20:22:00,
2013-06-17 16:27:00,70.0,61.5,29.82,SW,225,10.0,14.0,74,0.00,,,0.00,Rainwise IP-100,2013-06-17 20:27:00,
2013-06-17 16:32:00,70.0,62.0,29.81,SW,225,12.0,16.0,75,0.00,,,0.00,Rainwise IP-100,2013-06-17 20:32:00,
2013-06-17 16:37:00,71.0,62.5,29.81,SW,225,2.0,16.0,75,0.00,,,0.00,Rainwise IP-100,2013-06-17 20:37:00,
2013-06-17 16:43:00,69.0,60.5,29.82,WSW,247,9.0,17.0,75,0.00,,,0.00,Rainwise IP-100,2013-06-17 20:43:00,
2013-06-17 16:48:00,69.0,60.5,29.82,SW,225,12.0,16.0,75,0.00,,,0.00,Rainwise IP-100,2013-06-17 20:48:00,
2013-06-17 16:53:00,67.0,58.0,29.83,South,180,7.0,19.0,73,0.00,,,0.00,Rainwise IP-100,2013-06-17 20:53:00,
2013-06-17 16:58:00,67.0,58.0,29.83,SSW,202,9.0,16.0,73,0.00,,,0.00,Rainwise IP-100,2013-06-17 20:58:00,
2013-06-17 17:03:00,66.0,56.5,29.84,WSW,247,6.0,16.0,72,0.00,,,0.00,Rainwise IP-100,2013-06-17 21:03:00,
2013-06-17 17:08:00,65.0,55.0,29.84,SW,225,8.0,17.0,71,0.00,,,0.00,Rainwise IP-100,2013-06-17 21:08:00,
2013-06-17 17:13:00,65.0,54.5,29.84,SSW,202,5.0,15.0,70,0.00,,,0.00,Rainwise IP-100,2013-06-17 21:13:00,
2013-06-17 17:18:00,65.0,54.5,29.84,South,180,6.0,13.0,70,0.00,,,0.00,Rainwise IP-100,2013-06-17 21:18:00,
2013-06-17 17:23:00,65.0,54.5,29.83,SW,225,1.0,12.0,70,0.00,,,0.00,Rainwise IP-100,2013-06-17 21:23:00,
2013-06-17 17:28:00,66.0,56.0,29.83,SW,225,10.0,12.0,70,0.00,,,0.00,Rainwise IP-100,2013-06-17 21:28:00,
2013-06-17 17:33:00,66.0,56.0,29.83,SSW,202,2.0,14.0,70,0.00,,,0.00,Rainwise IP-100,2013-06-17 21:33:00,
2013-06-17 17:38:00,66.0,56.0,29.83,WSW,247,12.0,12.0,70,0.00,,,0.00,Rainwise IP-100,2013-06-17 21:38:00,
2013-06-17 17:43:00,66.0,56.0,29.83,WSW,247,5.0,16.0,70,0.00,,,0.00,Rainwise IP-100,2013-06-17 21:43:00,
2013-06-17 17:48:00,66.0,56.0,29.83,SW,225,8.0,17.0,70,0.00,,,0.00,Rainwise IP-100,2013-06-17 21:48:00,
2013-06-17 17:53:00,66.0,56.0,29.83,SSW,202,8.0,12.0,70,0.00,,,0.00,Rainwise IP-100,2013-06-17 21:53:00,
2013-06-17 17:59:00,65.0,54.5,29.83,SW,225,9.0,15.0,70,0.00,,,0.00,Rainwise IP-100,2013-06-17 21:59:00,
2013-06-17 18:04:00,65.0,54.5,29.83,SSW,202,8.0,13.0,70,0.00,,,0.00,Rainwise IP-100,2013-06-17 22:04:00,
2013-06-17 18:09:00,65.0,54.5,29.83,SW,225,3.0,16.0,70,0.00,,,0.00,Rainwise IP-100,2013-06-17 22:09:00,
2013-06-17 18:14:00,65.0,54.5,29.83,SE,135,3.0,13.0,70,0.00,,,0.00,Rainwise IP-100,2013-06-17 22:14:00,
2013-06-17 18:19:00,65.0,54.5,29.83,SW,225,9.0,15.0,70,0.00,,,0.00,Rainwise IP-100,2013-06-17 22:19:00,
2013-06-17 18:24:00,66.0,55.0,29.82,SW,225,12.0,13.0,69,0.00,,,0.00,Rainwise IP-100,2013-06-17 22:24:00,
2013-06-17 18:29:00,65.0,54.5,29.82,South,180,4.0,15.0,69,0.00,,,0.00,Rainwise IP-100,2013-06-17 22:29:00,
2013-06-17 18:34:00,65.0,54.5,29.82,NW,315,1.0,16.0,70,0.00,,,0.00,Rainwise IP-100,2013-06-17 22:34:00,
2013-06-17 18:39:00,65.0,54.5,29.82,West,270,3.0,15.0,70,0.00,,,0.00,Rainwise IP-100,2013-06-17 22:39:00,
2013-06-17 18:44:00,65.0,54.5,29.83,SW,225,9.0,16.0,70,0.00,,,0.00,Rainwise IP-100,2013-06-17 22:44:00,
2013-06-17 18:49:00,65.0,54.5,29.83,SW,225,1.0,12.0,70,0.00,,,0.00,Rainwise IP-100,2013-06-17 22:49:00,
2013-06-17 18:54:00,65.0,54.5,29.83,SW,225,0.0,15.0,69,0.00,,,0.00,Rainwise IP-100,2013-06-17 22:54:00,
2013-06-17 18:59:00,65.0,54.5,29.83,South,180,5.0,13.0,69,0.00,,,0.00,Rainwise IP-100,2013-06-17 22:59:00,
2013-06-17 19:04:00,65.0,54.5,29.83,SW,225,4.0,14.0,69,0.00,,,0.00,Rainwise IP-100,2013-06-17 23:04:00,
2013-06-17 19:10:00,65.0,54.5,29.83,West,270,2.0,19.0,69,0.00,,,0.00,Rainwise IP-100,2013-06-17 23:10:00,
2013-06-17 19:15:00,64.0,53.5,29.84,SW,225,13.0,13.0,69,0.00,,,0.00,Rainwise IP-100,2013-06-17 23:15:00,
2013-06-17 19:20:00,64.0,53.5,29.84,SW,225,4.0,13.0,68,0.00,,,0.00,Rainwise IP-100,2013-06-17 23:20:00,
2013-06-17 19:25:00,64.0,53.0,29.85,South,180,0.0,10.0,67,0.00,,,0.00,Rainwise IP-100,2013-06-17 23:25:00,
2013-06-17 19:30:00,64.0,53.0,29.85,SW,225,4.0,13.0,67,0.00,,,0.00,Rainwise IP-100,2013-06-17 23:30:00,
2013-06-17 19:35:00,64.0,53.0,29.85,SSW,202,2.0,9.0,66,0.00,,,0.00,Rainwise IP-100,2013-06-17 23:35:00,
2013-06-17 19:40:00,64.0,53.0,29.85,West,270,0.0,12.0,66,0.00,,,0.00,Rainwise IP-100,2013-06-17 23:40:00,
2013-06-17 19:45:00,64.0,52.0,29.87,SW,225,6.0,14.0,65,0.00,,,0.00,Rainwise IP-100,2013-06-17 23:45:00,
2013-06-17 19:50:00,63.0,51.0,29.87,WSW,247,5.0,13.0,65,0.00,,,0.00,Rainwise IP-100,2013-06-17 23:50:00,
2013-06-17 19:55:00,63.0,51.0,29.88,SSW,202,8.0,11.0,65,0.00,,,0.00,Rainwise IP-100,2013-06-17 23:55:00,
2013-06-17 20:00:00,63.0,54.5,29.88,WSW,247,6.0,12.0,74,0.00,,,0.00,Rainwise IP-100,2013-06-18 00:00:00,
2013-06-17 20:05:00,63.0,50.5,29.88,WSW,247,6.0,12.0,64,0.00,,,0.00,Rainwise IP-100,2013-06-18 00:05:00,
2013-06-17 20:10:00,63.0,54.0,29.88,SW,225,5.0,9.0,73,0.00,,,0.00,Rainwise IP-100,2013-06-18 00:10:00,
2013-06-17 20:16:00,63.0,50.5,29.88,NNW,337,7.0,10.0,64,0.00,,,0.00,Rainwise IP-100,2013-06-18 00:16:00,
2013-06-17 20:21:00,64.0,54.5,29.90,WNW,292,12.0,18.0,72,0.00,,,0.00,Rainwise IP-100,2013-06-18 00:21:00,
2013-06-17 20:26:00,64.0,50.5,29.90,NW,315,12.0,14.0,62,0.00,,,0.00,Rainwise IP-100,2013-06-18 00:26:00,
2013-06-17 20:31:00,65.0,56.0,29.90,NW,315,7.0,15.0,72,0.00,,,0.00,Rainwise IP-100,2013-06-18 00:31:00,
2013-06-17 20:36:00,65.0,51.0,29.90,NW,315,7.0,13.0,62,0.00,,,0.00,Rainwise IP-100,2013-06-18 00:36:00,
2013-06-17 20:41:00,66.0,57.0,29.90,NW,315,6.0,11.0,73,0.00,,,0.00,Rainwise IP-100,2013-06-18 00:41:00,
2013-06-17 20:46:00,66.0,53.5,29.90,NW,315,3.0,9.0,64,0.00,,,0.00,Rainwise IP-100,2013-06-18 00:46:00,
2013-06-17 20:51:00,66.0,57.0,29.89,NW,315,0.0,6.0,74,0.00,,,0.00,Rainwise IP-100,2013-06-18 00:51:00,
2013-06-17 20:56:00,66.0,53.5,29.89,NW,315,0.0,6.0,64,0.00,,,0.00,Rainwise IP-100,2013-06-18 00:56:00,
2013-06-17 21:01:00,66.0,57.0,29.90,NW,315,0.0,5.0,74,0.00,,,0.00,Rainwise IP-100,2013-06-18 01:01:00,
2013-06-17 21:06:00,65.0,53.0,29.90,WNW,292,0.0,5.0,64,0.00,,,0.00,Rainwise IP-100,2013-06-18 01:06:00,
2013-06-17 21:11:00,66.0,57.0,29.90,West,270,0.0,4.0,74,0.00,,,0.00,Rainwise IP-100,2013-06-18 01:11:00,
2013-06-17 21:16:00,65.0,53.0,29.90,NW,315,6.0,6.0,65,0.00,,,0.00,Rainwise IP-100,2013-06-18 01:16:00,
2013-06-17 21:21:00,65.0,54.0,29.90,NW,315,0.0,6.0,67,0.00,,,0.00,Rainwise IP-100,2013-06-18 01:21:00,
2013-06-17 21:26:00,65.0,54.0,29.90,North,360,0.0,5.0,67,0.00,,,0.00,Rainwise IP-100,2013-06-18 01:26:00,
2013-06-17 21:32:00,65.0,54.5,29.90,North,360,0.0,6.0,69,0.00,,,0.00,Rainwise IP-100,2013-06-18 01:32:00,
2013-06-17 21:37:00,64.0,53.5,29.90,NNE,22,0.0,3.0,69,0.00,,,0.00,Rainwise IP-100,2013-06-18 01:37:00,
2013-06-17 21:42:00,64.0,53.5,29.90,NW,315,0.0,2.0,69,0.00,,,0.00,Rainwise IP-100,2013-06-18 01:42:00,
2013-06-17 21:47:00,64.0,53.5,29.90,NW,315,0.0,0.0,68,0.00,,,0.00,Rainwise IP-100,2013-06-18 01:47:00,
2013-06-17 21:52:00,64.0,53.5,29.90,NW,315,0.0,0.0,69,0.00,,,0.00,Rainwise IP-100,2013-06-18 01:52:00,
2013-06-17 21:57:00,63.0,53.0,29.90,NW,315,0.0,0.0,69,0.00,,,0.00,Rainwise IP-100,2013-06-18 01:57:00,
2013-06-17 22:02:00,63.0,53.0,29.90,NW,315,0.0,0.0,69,0.00,,,0.00,Rainwise IP-100,2013-06-18 02:02:00,
2013-06-17 22:07:00,63.0,52.0,29.90,NW,315,0.0,0.0,67,0.00,,,0.00,Rainwise IP-100,2013-06-18 02:07:00,
2013-06-17 22:12:00,63.0,53.0,29.90,NW,315,0.0,0.0,69,0.00,,,0.00,Rainwise IP-100,2013-06-18 02:12:00,
2013-06-17 22:17:00,63.0,52.0,29.90,NW,315,0.0,0.0,67,0.00,,,0.00,Rainwise IP-100,2013-06-18 02:17:00,
2013-06-17 22:22:00,63.0,52.0,29.91,WSW,247,2.0,3.0,67,0.00,,,0.00,Rainwise IP-100,2013-06-18 02:22:00,
2013-06-17 22:27:00,63.0,51.0,29.91,WSW,247,2.0,3.0,66,0.00,,,0.00,Rainwise IP-100,2013-06-18 02:27:00,
2013-06-17 22:32:00,63.0,52.0,29.92,SW,225,4.0,4.0,67,0.00,,,0.00,Rainwise IP-100,2013-06-18 02:32:00,
2013-06-17 22:37:00,63.0,51.0,29.92,WNW,292,0.0,5.0,66,0.00,,,0.00,Rainwise IP-100,2013-06-18 02:37:00,
2013-06-17 22:42:00,62.0,50.5,29.91,SW,225,0.0,4.0,66,0.00,,,0.00,Rainwise IP-100,2013-06-18 02:42:00,
2013-06-17 22:48:00,63.0,50.5,29.91,SE,135,1.0,3.0,64,0.00,,,0.00,Rainwise IP-100,2013-06-18 02:48:00,
2013-06-17 22:53:00,63.0,50.5,29.89,SE,135,1.0,5.0,63,0.00,,,0.00,Rainwise IP-100,2013-06-18 02:53:00,
2013-06-17 22:58:00,63.0,50.0,29.89,SSW,202,1.0,7.0,62,0.00,,,0.00,Rainwise IP-100,2013-06-18 02:58:00,
2013-06-17 23:03:00,63.0,50.0,29.88,SE,135,6.0,7.0,62,0.00,,,0.00,Rainwise IP-100,2013-06-18 03:03:00,
2013-06-17 23:08:00,63.0,49.0,29.88,SE,135,2.0,7.0,60,0.00,,,0.00,Rainwise IP-100,2013-06-18 03:08:00,
2013-06-17 23:13:00,63.0,49.0,29.88,SW,225,0.0,5.0,60,0.00,,,0.00,Rainwise IP-100,2013-06-18 03:13:00,
2013-06-17 23:18:00,63.0,49.0,29.88,South,180,0.0,3.0,60,0.00,,,0.00,Rainwise IP-100,2013-06-18 03:18:00,
2013-06-17 23:23:00,63.0,49.0,29.88,WSW,247,0.0,4.0,60,0.00,,,0.00,Rainwise IP-100,2013-06-18 03:23:00,
2013-06-17 23:28:00,62.0,47.5,29.88,SSW,202,0.0,2.0,59,0.00,,,0.00,Rainwise IP-100,2013-06-18 03:28:00,
2013-06-17 23:33:00,62.0,48.0,29.88,SSW,202,0.0,0.0,60,0.00,,,0.00,Rainwise IP-100,2013-06-18 03:33:00,
2013-06-17 23:38:00,62.0,47.0,29.88,SW,225,2.0,3.0,58,0.00,,,0.00,Rainwise IP-100,2013-06-18 03:38:00,
2013-06-17 23:43:00,62.0,47.0,29.88,SW,225,0.0,5.0,57,0.00,,,0.00,Rainwise IP-100,2013-06-18 03:43:00,
2013-06-17 23:48:00,62.0,47.0,29.88,SW,225,1.0,5.0,57,0.00,,,0.00,Rainwise IP-100,2013-06-18 03:48:00,
2013-06-17 23:53:00,62.0,47.0,29.88,SSW,202,1.0,5.0,57,0.00,,,0.00,Rainwise IP-100,2013-06-18 03:53:00,
2013-06-17 23:59:00,61.0,45.0,29.88,SSW,202,0.0,6.0,56,0.00,,,0.00,Rainwise IP-100,2013-06-18 03:59:00,